Time;durP1;ratioP1;P1;durP2;ratioP2;P2;SDS_P1;SDS_P2;PMS_P1;PMS_P2;Temp;Humidity;BMP_temperature;BMP_pressure;BME280_temperature;BME280_humidity;BME280_pressure;Samples;Min_cycle;Max_cycle;Signal;HPM_P1;HPM_P2
2024/02/25 05:02:24;;;;;;;0.50;0.50;;;3.50;99.90;;;;;;5095610;23;20347;-67
2024/02/25 05:04:50;;;;;;;1.05;1.05;;;3.50;99.90;;;;;;4985972;28;20214;-68
2024/02/25 05:07:17;;;;;;;1.65;0.88;;;3.50;99.90;;;;;;4992642;28;20687;-68
2024/02/25 05:09:44;;;;;;;0.47;0.47;;;3.50;99.90;;;;;;4989148;28;20602;-68
2024/02/25 05:12:14;;;;;;;0.90;0.90;;;3.50;99.90;;;;;;4993324;28;20234;-68
2024/02/25 05:14:40;;;;;;;0.50;0.50;;;3.50;99.90;;;;;;4991596;28;20215;-68
2024/02/25 05:17:07;;;;;;;0.60;0.60;;;3.50;99.90;;;;;;4988481;28;20207;-68
2024/02/25 05:19:35;;;;;;;1.00;1.00;;;3.50;99.90;;;;;;4986105;28;20218;-68
2024/02/25 05:22:02;;;;;;;0.30;0.30;;;3.50;99.90;;;;;;4987813;28;20234;-68
2024/02/25 05:24:28;;;;;;;0.80;0.80;;;3.50;99.90;;;;;;4991513;28;20206;-68
2024/02/25 05:26:56;;;;;;;0.60;0.60;;;3.50;99.90;;;;;;4983779;28;20739;-68
2024/02/25 05:29:22;;;;;;;0.75;0.75;;;3.50;99.90;;;;;;4984613;28;20206;-68
2024/02/25 05:31:50;;;;;;;0.60;0.60;;;3.50;99.90;;;;;;4984566;28;20241;-68
2024/02/25 05:34:17;;;;;;;1.20;0.55;;;3.50;99.90;;;;;;4991699;28;20220;-69
2024/02/25 05:36:45;;;;;;;0.77;0.47;;;3.50;99.90;;;;;;4990539;28;20202;-69
2024/02/25 05:39:12;;;;;;;0.65;0.65;;;3.60;99.90;;;;;;4984060;28;20270;-69
2024/02/25 05:41:38;;;;;;;0.40;0.40;;;3.60;99.90;;;;;;4989533;28;20325;-68
2024/02/25 05:44:05;;;;;;;2.08;0.50;;;3.60;99.90;;;;;;4992540;28;20701;-69
2024/02/25 05:46:32;;;;;;;1.20;0.77;;;3.60;99.90;;;;;;4987613;28;20286;-69
2024/02/25 05:48:59;;;;;;;0.47;0.47;;;3.60;99.90;;;;;;4992084;28;20210;-68
2024/02/25 05:51:25;;;;;;;0.63;0.63;;;3.60;99.90;;;;;;4983329;28;20230;-69
2024/02/25 05:53:54;;;;;;;0.50;0.50;;;3.60;99.90;;;;;;4987089;28;20289;-69
2024/02/25 05:56:20;;;;;;;0.73;0.73;;;3.60;99.90;;;;;;4984201;28;20712;-69
2024/02/25 05:58:47;;;;;;;0.65;0.65;;;3.60;99.90;;;;;;4992440;28;20623;-68
2024/02/25 06:01:14;;;;;;;0.80;0.80;;;3.60;99.90;;;;;;4988382;28;20589;-68
2024/02/25 06:03:41;;;;;;;0.57;0.57;;;3.60;99.90;;;;;;4991854;28;20289;-69
2024/02/25 06:06:10;;;;;;;3.70;1.23;;;3.60;99.90;;;;;;4991259;28;20601;-68
2024/02/25 06:08:37;;;;;;;0.90;0.90;;;3.60;99.90;;;;;;4983440;28;20201;-68
2024/02/25 06:11:05;;;;;;;0.60;0.60;;;3.60;99.90;;;;;;4986664;28;20785;-68
2024/02/25 06:13:32;;;;;;;0.88;0.88;;;3.60;99.90;;;;;;4987389;28;20219;-69
2024/02/25 06:15:59;;;;;;;3.50;0.90;;;3.60;99.90;;;;;;4987498;28;20211;-69
2024/02/25 06:18:25;;;;;;;12.63;0.70;;;3.60;99.90;;;;;;4988226;28;20297;-68
2024/02/25 06:20:52;;;;;;;1.55;0.90;;;3.60;99.90;;;;;;4985639;28;20227;-68
2024/02/25 06:23:19;;;;;;;0.40;0.40;;;3.60;99.90;;;;;;4991920;28;20214;-68
2024/02/25 06:25:46;;;;;;;0.30;0.30;;;3.60;99.90;;;;;;4990391;28;20697;-69
2024/02/25 06:28:14;;;;;;;1.15;1.15;;;3.60;99.90;;;;;;4978832;28;20204;-69
2024/02/25 06:30:41;;;;;;;0.30;0.30;;;3.70;99.90;;;;;;4976768;28;20247;-68
2024/02/25 06:33:07;;;;;;;0.60;0.60;;;3.70;99.90;;;;;;4986253;28;20203;-69
2024/02/25 06:35:34;;;;;;;0.82;0.82;;;3.80;99.90;;;;;;4988164;28;20207;-68
2024/02/25 06:38:01;;;;;;;0.50;0.50;;;3.80;99.90;;;;;;4989962;28;20606;-69
2024/02/25 06:40:27;;;;;;;0.47;0.47;;;3.80;99.90;;;;;;4987632;28;20211;-68
2024/02/25 06:42:54;;;;;;;0.55;0.55;;;3.70;99.90;;;;;;4989185;28;20207;-68
2024/02/25 06:45:22;;;;;;;0.52;0.50;;;3.70;99.90;;;;;;4987978;28;20214;-69
2024/02/25 06:47:49;;;;;;;0.63;0.63;;;3.70;99.90;;;;;;4986235;28;20254;-68
2024/02/25 06:50:17;;;;;;;0.60;0.60;;;3.80;99.90;;;;;;4984583;28;20227;-69
2024/02/25 06:52:43;;;;;;;0.63;0.63;;;3.90;99.90;;;;;;4989736;28;20215;-69
2024/02/25 06:55:10;;;;;;;5.93;0.60;;;3.90;99.90;;;;;;4984611;28;20214;-69
2024/02/25 06:57:37;;;;;;;2.25;0.60;;;4.00;99.90;;;;;;4984276;28;20213;-69
2024/02/25 07:00:07;;;;;;;0.60;0.60;;;4.10;99.90;;;;;;4980452;28;20206;-69
2024/02/25 07:02:36;;;;;;;0.50;0.50;;;4.10;99.90;;;;;;4985238;28;20297;-69
2024/02/25 07:05:03;;;;;;;2.80;2.28;;;4.10;99.90;;;;;;4985121;28;20204;-68
2024/02/25 07:07:30;;;;;;;12.27;8.90;;;4.10;99.90;;;;;;4981058;28;20232;-68
2024/02/25 07:09:57;;;;;;;1.13;1.13;;;4.10;99.90;;;;;;4983318;28;20223;-68
2024/02/25 07:12:24;;;;;;;0.40;0.40;;;4.10;99.90;;;;;;4980301;28;20326;-68
2024/02/25 07:14:52;;;;;;;0.55;0.55;;;4.20;99.90;;;;;;4980529;28;20210;-68
2024/02/25 07:17:19;;;;;;;0.43;0.43;;;4.20;99.90;;;;;;4980893;28;20260;-69
2024/02/25 07:19:47;;;;;;;0.50;0.50;;;4.30;99.90;;;;;;4984353;28;20206;-68
2024/02/25 07:22:14;;;;;;;0.57;0.57;;;4.30;99.90;;;;;;4984043;28;20234;-68
2024/02/25 07:24:41;;;;;;;2.45;2.35;;;4.40;99.90;;;;;;4983941;28;20203;-68
2024/02/25 07:27:08;;;;;;;0.60;0.60;;;4.40;99.90;;;;;;4980421;28;20247;-68
2024/02/25 07:29:35;;;;;;;0.70;0.43;;;4.40;99.90;;;;;;4987625;28;20211;-68
2024/02/25 07:32:01;;;;;;;0.73;0.73;;;4.40;99.90;;;;;;4983721;28;20231;-69
2024/02/25 07:34:28;;;;;;;14.73;8.48;;;4.40;99.90;;;;;;4980646;28;20212;-68
2024/02/25 07:36:56;;;;;;;0.50;0.50;;;4.40;99.90;;;;;;4978761;28;20227;-68
2024/02/25 07:39:23;;;;;;;1.08;0.73;;;4.40;99.90;;;;;;4983019;28;20269;-68
2024/02/25 07:41:50;;;;;;;1.00;0.80;;;4.40;99.90;;;;;;4987789;28;20227;-68
2024/02/25 07:44:17;;;;;;;1.75;1.27;;;4.50;99.90;;;;;;4990238;28;20720;-69
2024/02/25 07:46:43;;;;;;;1.70;1.70;;;4.50;99.90;;;;;;4984250;28;20226;-68
2024/02/25 07:49:10;;;;;;;0.75;0.75;;;4.50;99.90;;;;;;4987922;28;20207;-67
2024/02/25 07:51:37;;;;;;;2.47;2.30;;;4.50;99.90;;;;;;4977819;28;20231;-68
2024/02/25 07:54:05;;;;;;;7.60;1.67;;;4.60;99.90;;;;;;4984081;28;20210;-67
2024/02/25 07:56:32;;;;;;;1.27;1.17;;;4.60;99.90;;;;;;4983783;28;20238;-68
2024/02/25 07:58:58;;;;;;;5.20;2.55;;;4.50;99.90;;;;;;4977417;28;20208;-68
2024/02/25 08:01:25;;;;;;;2.47;1.70;;;4.60;99.90;;;;;;4985428;28;20238;-68
2024/02/25 08:03:52;;;;;;;1.02;0.80;;;4.60;99.90;;;;;;4982089;28;20208;-68
2024/02/25 08:06:25;;;;;;;2.33;2.22;;;4.70;99.90;;;;;;4976496;28;20233;-68
2024/02/25 08:08:52;;;;;;;0.63;0.57;;;4.80;99.90;;;;;;4985215;28;20204;-68
2024/02/25 08:11:20;;;;;;;1.98;1.88;;;4.80;99.90;;;;;;4985058;28;20220;-68
2024/02/25 08:13:47;;;;;;;2.67;1.60;;;4.80;99.90;;;;;;4986229;28;20206;-68
2024/02/25 08:16:13;;;;;;;0.88;0.70;;;4.80;99.90;;;;;;4982850;28;20219;-68
2024/02/25 08:18:44;;;;;;;1.58;1.35;;;4.90;99.90;;;;;;4982646;28;20561;-68
2024/02/25 08:21:11;;;;;;;2.33;2.22;;;4.90;99.90;;;;;;4983419;28;20236;-69
2024/02/25 08:23:38;;;;;;;0.77;0.77;;;4.90;99.90;;;;;;4984324;28;20629;-68
2024/02/25 08:26:04;;;;;;;0.77;0.77;;;5.00;99.90;;;;;;4991699;28;20210;-68
2024/02/25 08:28:32;;;;;;;1.70;1.67;;;5.00;99.90;;;;;;4992361;28;20203;-67
2024/02/25 08:30:59;;;;;;;0.45;0.45;;;5.10;99.90;;;;;;4982429;28;20243;-68
2024/02/25 08:33:26;;;;;;;0.90;0.90;;;5.00;99.90;;;;;;4990138;28;20204;-68
2024/02/25 08:35:52;;;;;;;1.02;1.02;;;5.10;99.90;;;;;;4994965;28;20228;-68
2024/02/25 08:38:19;;;;;;;0.50;0.50;;;5.10;99.90;;;;;;4990906;28;20223;-69
2024/02/25 08:40:46;;;;;;;0.65;0.65;;;5.20;99.90;;;;;;4986521;28;20694;-68
2024/02/25 08:43:13;;;;;;;0.60;0.60;;;5.20;99.90;;;;;;4992301;28;20219;-68
2024/02/25 08:45:41;;;;;;;0.85;0.85;;;5.30;99.90;;;;;;4993326;28;20216;-69
2024/02/25 08:48:08;;;;;;;1.38;1.38;;;5.50;99.90;;;;;;4986603;28;20224;-69
2024/02/25 08:50:35;;;;;;;1.63;1.50;;;5.60;99.90;;;;;;4985372;28;20227;-68
2024/02/25 08:53:01;;;;;;;1.05;1.05;;;5.60;99.90;;;;;;4985341;28;20204;-68
2024/02/25 08:55:28;;;;;;;1.02;1.02;;;5.70;99.90;;;;;;4987380;28;20204;-68
2024/02/25 08:57:55;;;;;;;0.73;0.68;;;5.80;99.90;;;;;;4984862;28;20212;-69
2024/02/25 09:00:22;;;;;;;1.05;1.05;;;5.90;99.90;;;;;;4984505;28;20199;-68
2024/02/25 09:02:50;;;;;;;0.80;0.80;;;5.90;99.90;;;;;;4986477;28;20320;-68
2024/02/25 09:05:16;;;;;;;0.68;0.68;;;6.10;99.90;;;;;;4992744;28;20220;-68
2024/02/25 09:07:43;;;;;;;0.85;0.85;;;6.10;99.90;;;;;;4992826;28;20231;-68
2024/02/25 09:10:13;;;;;;;2.20;1.20;;;6.20;99.90;;;;;;4992278;28;20266;-68
2024/02/25 09:12:40;;;;;;;1.20;1.20;;;6.30;99.90;;;;;;4990351;28;20275;-67
2024/02/25 09:15:07;;;;;;;0.88;0.88;;;6.30;99.90;;;;;;4988007;28;20699;-68
2024/02/25 09:17:34;;;;;;;0.90;0.90;;;6.30;99.90;;;;;;4989269;28;20669;-68
2024/02/25 09:20:02;;;;;;;1.23;1.20;;;6.30;99.90;;;;;;4982024;28;20213;-68
2024/02/25 09:22:28;;;;;;;2.17;2.08;;;6.40;99.90;;;;;;4985152;28;20704;-69
2024/02/25 09:24:55;;;;;;;1.58;0.73;;;6.50;99.90;;;;;;4984140;28;20590;-69
2024/02/25 09:27:22;;;;;;;2.00;1.90;;;6.50;99.90;;;;;;4985076;28;20320;-69
2024/02/25 09:29:49;;;;;;;5.88;4.50;;;6.50;99.90;;;;;;4984963;28;20202;-69
2024/02/25 09:32:15;;;;;;;3.78;2.50;;;6.50;99.90;;;;;;4985212;28;20733;-69
2024/02/25 09:34:44;;;;;;;2.35;1.52;;;6.60;99.90;;;;;;4983824;28;20229;-69
2024/02/25 09:37:13;;;;;;;1.45;1.45;;;6.70;99.90;;;;;;4988060;28;20212;-69
2024/02/25 09:39:40;;;;;;;2.75;2.55;;;6.70;99.90;;;;;;4990240;28;20214;-67
2024/02/25 09:42:11;;;;;;;4.18;3.63;;;6.70;99.90;;;;;;4987014;28;20712;-68
2024/02/25 09:44:39;;;;;;;1.80;1.70;;;6.70;99.90;;;;;;4991631;28;20223;-68
2024/02/25 09:47:16;;;;;;;1.67;1.65;;;6.70;99.90;;;;;;4992673;28;20249;-68
2024/02/25 09:49:46;;;;;;;5.40;3.88;;;6.70;99.90;;;;;;4986126;28;20303;-67
2024/02/25 09:52:22;;;;;;;0.93;0.93;;;6.70;99.90;;;;;;4985650;28;20308;-68
2024/02/25 09:54:54;;;;;;;1.85;1.52;;;6.70;99.90;;;;;;4981160;28;20551;-69
2024/02/25 09:57:21;;;;;;;0.90;0.90;;;6.60;99.90;;;;;;4989162;28;20210;-68
2024/02/25 09:59:53;;;;;;;0.50;0.50;;;6.60;99.90;;;;;;4983809;28;20218;-68
2024/02/25 10:02:21;;;;;;;1.50;1.50;;;6.70;99.90;;;;;;4989194;28;20241;-68
2024/02/25 10:04:52;;;;;;;1.15;1.15;;;6.60;99.90;;;;;;4986891;28;20286;-69
2024/02/25 10:07:22;;;;;;;1.63;1.60;;;6.60;99.90;;;;;;4984357;28;20224;-68
2024/02/25 10:09:51;;;;;;;1.80;1.17;;;6.60;99.90;;;;;;4986651;28;20227;-68
2024/02/25 10:12:19;;;;;;;1.60;1.60;;;6.60;99.90;;;;;;4980363;28;20223;-68
2024/02/25 10:14:54;;;;;;;1.00;1.00;;;6.70;99.90;;;;;;4983937;28;20205;-67
2024/02/25 10:17:23;;;;;;;1.27;1.15;;;6.70;99.90;;;;;;4984031;28;20295;-67
2024/02/25 10:20:06;;;;;;;1.40;1.05;;;6.70;99.90;;;;;;4981201;28;20200;-66
2024/02/25 10:22:35;;;;;;;1.65;1.55;;;6.70;99.90;;;;;;4985958;28;20293;-68
2024/02/25 10:25:07;;;;;;;3.10;3.00;;;6.80;99.90;;;;;;4991303;28;20206;-68
2024/02/25 10:27:35;;;;;;;5.45;1.70;;;6.80;99.90;;;;;;4980528;28;20227;-67
2024/02/25 10:30:08;;;;;;;0.95;0.95;;;6.80;99.90;;;;;;4978432;28;20215;-68
2024/02/25 10:32:38;;;;;;;1.15;1.10;;;7.00;99.90;;;;;;4983331;28;20244;-68
2024/02/25 10:35:06;;;;;;;1.15;1.15;;;7.10;99.90;;;;;;4979881;28;20243;-68
2024/02/25 10:37:38;;;;;;;1.77;1.73;;;7.10;99.90;;;;;;4989815;28;20303;-68
2024/02/25 10:40:10;;;;;;;1.15;0.80;;;7.20;99.90;;;;;;4990566;28;20221;-68
2024/02/25 10:42:44;;;;;;;1.42;1.42;;;7.20;99.90;;;;;;4983397;28;20237;-68
2024/02/25 10:45:19;;;;;;;1.10;1.10;;;7.20;99.90;;;;;;4987356;28;20216;-67
2024/02/25 10:47:47;;;;;;;0.73;0.73;;;7.20;99.90;;;;;;4977810;28;20287;-68
2024/02/25 10:50:15;;;;;;;1.50;1.40;;;7.30;99.90;;;;;;4981659;28;20733;-68
2024/02/25 10:52:44;;;;;;;1.10;1.10;;;7.30;99.90;;;;;;4986712;28;20563;-68
2024/02/25 10:55:12;;;;;;;1.30;1.30;;;7.30;99.90;;;;;;4986432;28;20222;-68
2024/02/25 10:57:41;;;;;;;0.95;0.77;;;7.40;99.90;;;;;;4984882;28;20233;-68
2024/02/25 11:00:11;;;;;;;0.93;0.60;;;7.50;99.90;;;;;;4988166;28;20210;-68
2024/02/25 11:02:38;;;;;;;0.95;0.95;;;7.50;99.90;;;;;;4982159;28;20249;-68
2024/02/25 11:05:06;;;;;;;1.00;1.00;;;7.70;99.90;;;;;;4980202;28;20205;-67
2024/02/25 11:07:32;;;;;;;1.90;1.80;;;7.70;99.90;;;;;;4981534;28;20221;-68
2024/02/25 11:10:00;;;;;;;1.88;1.88;;;7.80;99.90;;;;;;4984333;28;20243;-68
2024/02/25 11:12:28;;;;;;;1.92;1.40;;;7.90;99.90;;;;;;4986716;28;20235;-69
2024/02/25 11:15:01;;;;;;;0.52;0.40;;;8.00;99.90;;;;;;4977213;28;20215;-69
2024/02/25 11:17:30;;;;;;;1.98;1.95;;;8.10;99.90;;;;;;4978728;28;20261;-69
2024/02/25 11:20:07;;;;;;;5.70;2.75;;;8.20;99.90;;;;;;4984542;28;20555;-68
2024/02/25 11:22:44;;;;;;;3.38;2.95;;;8.30;99.90;;;;;;4982737;28;20243;-68
2024/02/25 11:25:37;;;;;;;2.38;1.92;;;8.30;99.90;;;;;;4983484;28;20215;-69
2024/02/25 11:28:05;;;;;;;1.55;1.48;;;8.40;99.90;;;;;;4984062;28;20236;-69
2024/02/25 11:30:39;;;;;;;3.45;3.15;;;8.50;99.90;;;;;;4983324;28;20318;-69
2024/02/25 11:33:37;;;;;;;2.47;1.67;;;8.70;99.90;;;;;;4985060;28;20219;-68
2024/02/25 11:36:08;;;;;;;1.10;0.85;;;8.90;99.90;;;;;;4982666;28;20905;-69
2024/02/25 11:38:35;;;;;;;3.92;3.28;;;9.00;99.90;;;;;;4982288;28;20208;-69
2024/02/25 11:41:03;;;;;;;6.53;4.90;;;9.00;99.90;;;;;;4988425;28;20325;-69
2024/02/25 11:43:30;;;;;;;1.30;0.82;;;9.00;99.90;;;;;;4985919;28;20212;-69
2024/02/25 11:45:56;;;;;;;1.52;1.50;;;9.10;99.90;;;;;;4984168;28;20211;-68
2024/02/25 11:48:23;;;;;;;1.20;0.82;;;9.10;99.90;;;;;;4985165;28;20258;-68
2024/02/25 11:50:50;;;;;;;1.63;1.55;;;9.10;99.90;;;;;;4987087;28;20231;-69
2024/02/25 11:53:17;;;;;;;1.10;1.10;;;9.10;99.90;;;;;;4989588;28;20222;-69
2024/02/25 11:55:44;;;;;;;2.55;0.90;;;9.00;99.90;;;;;;4989004;28;20303;-68
2024/02/25 11:58:12;;;;;;;0.70;0.70;;;9.00;99.90;;;;;;4988264;28;20579;-68
2024/02/25 12:00:39;;;;;;;1.95;0.98;;;9.00;99.90;;;;;;4990809;28;20246;-67
2024/02/25 12:03:06;;;;;;;3.13;1.20;;;9.00;99.90;;;;;;4991996;28;20204;-67
2024/02/25 12:05:33;;;;;;;1.25;1.25;;;9.00;99.90;;;;;;4985984;28;20598;-68
2024/02/25 12:08:01;;;;;;;0.50;0.50;;;9.10;99.90;;;;;;4986760;28;20817;-67
2024/02/25 12:10:28;;;;;;;1.05;1.00;;;9.10;99.90;;;;;;4989030;28;20274;-67
2024/02/25 12:12:56;;;;;;;0.82;0.80;;;9.20;99.90;;;;;;4989899;28;20564;-67
2024/02/25 12:15:28;;;;;;;0.70;0.70;;;9.20;99.90;;;;;;4994010;28;20211;-67
2024/02/25 12:17:56;;;;;;;0.73;0.73;;;9.20;99.90;;;;;;4993014;28;20201;-67
2024/02/25 12:20:23;;;;;;;1.25;1.20;;;9.20;99.90;;;;;;4990128;28;20218;-68
2024/02/25 12:22:53;;;;;;;0.73;0.70;;;9.20;99.90;;;;;;4983618;28;20211;-67
2024/02/25 12:25:20;;;;;;;1.25;1.15;;;9.30;99.90;;;;;;4993305;28;20207;-67
2024/02/25 12:27:48;;;;;;;0.90;0.90;;;9.40;99.90;;;;;;4988626;28;20231;-68
2024/02/25 12:30:15;;;;;;;1.00;0.68;;;9.40;99.90;;;;;;4989717;28;20243;-68
2024/02/25 12:32:43;;;;;;;0.88;0.88;;;9.40;99.90;;;;;;4992785;28;24571;-68
2024/02/25 12:35:10;;;;;;;0.80;0.80;;;9.40;99.90;;;;;;4994794;28;20210;-68
2024/02/25 12:37:37;;;;;;;0.95;0.95;;;9.40;99.90;;;;;;4990311;28;20214;-68
2024/02/25 12:40:08;;;;;;;2.97;2.42;;;9.30;99.90;;;;;;4987187;28;20206;-68
2024/02/25 12:42:35;;;;;;;1.95;1.85;;;9.20;99.90;;;;;;4986712;28;20267;-70
2024/02/25 12:45:02;;;;;;;1.50;1.50;;;9.20;99.90;;;;;;4992316;28;20202;-67
2024/02/25 12:47:29;;;;;;;1.55;1.50;;;9.30;99.90;;;;;;4991852;28;20215;-67
2024/02/25 12:49:56;;;;;;;14.27;9.80;;;9.30;99.90;;;;;;4986686;28;20322;-68
2024/02/25 12:52:22;;;;;;;5.93;5.10;;;9.20;99.90;;;;;;4993589;28;20228;-69
2024/02/25 12:54:49;;;;;;;1.98;1.90;;;9.20;99.90;;;;;;4989449;28;20210;-68
2024/02/25 12:57:16;;;;;;;1.65;1.40;;;9.30;99.90;;;;;;4989565;28;20212;-68
2024/02/25 12:59:42;;;;;;;2.08;1.95;;;9.30;99.90;;;;;;4988929;28;20207;-68
2024/02/25 13:02:10;;;;;;;6.55;4.35;;;9.20;99.90;;;;;;4988188;28;20236;-67
2024/02/25 13:04:37;;;;;;;1.83;1.70;;;9.20;99.90;;;;;;4992279;28;20571;-68
2024/02/25 13:07:05;;;;;;;7.28;4.80;;;9.30;99.90;;;;;;4989266;28;20223;-67
2024/02/25 13:09:32;;;;;;;2.03;1.95;;;9.30;99.90;;;;;;4985325;28;20224;-68
2024/02/25 13:12:01;;;;;;;1.00;1.00;;;9.30;99.90;;;;;;4989356;28;20228;-68
2024/02/25 13:14:28;;;;;;;1.40;1.40;;;9.30;99.90;;;;;;4989699;28;20263;-67
2024/02/25 13:16:55;;;;;;;2.42;2.22;;;9.20;99.90;;;;;;4989672;28;20275;-67
2024/02/25 13:19:21;;;;;;;2.25;1.95;;;9.10;99.90;;;;;;4990819;28;20238;-66
2024/02/25 13:21:48;;;;;;;1.08;1.08;;;9.20;99.90;;;;;;4988599;28;21571;-68
2024/02/25 13:24:16;;;;;;;4.43;1.40;;;9.20;99.90;;;;;;4992500;28;20223;-67
2024/02/25 13:26:44;;;;;;;1.05;0.90;;;9.10;99.90;;;;;;4987435;28;20303;-68
2024/02/25 13:29:12;;;;;;;1.38;1.38;;;9.20;99.90;;;;;;4987895;28;20224;-69
2024/02/25 13:31:38;;;;;;;0.75;0.75;;;9.20;99.90;;;;;;4979514;28;20238;-68
2024/02/25 13:34:05;;;;;;;2.92;2.83;;;9.20;99.90;;;;;;4988608;28;20314;-69
2024/02/25 13:36:36;;;;;;;1.50;1.40;;;9.20;99.90;;;;;;4987848;28;20555;-68
2024/02/25 13:39:03;;;;;;;4.00;3.60;;;9.30;99.90;;;;;;4988562;28;20263;-68
2024/02/25 13:41:31;;;;;;;7.75;4.45;;;9.40;99.90;;;;;;4985759;28;20256;-67
2024/02/25 13:43:58;;;;;;;3.28;2.80;;;9.40;99.90;;;;;;4989505;28;20208;-67
2024/02/25 13:46:25;;;;;;;5.07;4.25;;;9.30;99.90;;;;;;4984071;28;20208;-68
2024/02/25 13:48:52;;;;;;;5.72;4.97;;;9.40;99.90;;;;;;4984820;28;20234;-67
2024/02/25 13:51:20;;;;;;;17.95;7.57;;;9.30;99.90;;;;;;4985751;28;20231;-68
2024/02/25 13:53:47;;;;;;;17.67;8.80;;;9.30;99.90;;;;;;4987485;28;20246;-67
2024/02/25 13:56:14;;;;;;;4.10;2.60;;;9.30;99.90;;;;;;4988253;28;20223;-67
2024/02/25 13:58:43;;;;;;;8.50;6.45;;;9.30;99.90;;;;;;4989464;28;20227;-70
2024/02/25 14:01:11;;;;;;;2.72;2.53;;;9.30;99.90;;;;;;4984381;28;20244;-68
2024/02/25 14:03:38;;;;;;;3.55;2.15;;;9.30;99.90;;;;;;4986936;28;20211;-67
2024/02/25 14:06:06;;;;;;;13.60;6.32;;;9.30;99.90;;;;;;4989143;28;20784;-67
2024/02/25 14:08:32;;;;;;;7.13;3.67;;;9.30;99.90;;;;;;4986880;28;20580;-68
2024/02/25 14:11:00;;;;;;;3.40;2.15;;;9.20;99.90;;;;;;4985521;28;20228;-68
2024/02/25 14:13:26;;;;;;;2.83;2.58;;;9.10;99.90;;;;;;4992174;28;20218;-68
2024/02/25 14:15:55;;;;;;;5.57;4.13;;;9.10;99.90;;;;;;4991486;28;20215;-69
2024/02/25 14:18:22;;;;;;;3.28;3.08;;;9.10;99.90;;;;;;4987392;28;20632;-67
2024/02/25 14:20:52;;;;;;;30.40;17.13;;;9.20;99.90;;;;;;4986147;28;20223;-67
2024/02/25 14:23:19;;;;;;;2.13;1.33;;;9.20;99.90;;;;;;4991861;28;20215;-68
2024/02/25 14:25:47;;;;;;;2.60;2.50;;;9.30;99.90;;;;;;4991422;28;20211;-68
2024/02/25 14:28:14;;;;;;;6.38;5.78;;;9.30;99.90;;;;;;4989114;28;20228;-68
2024/02/25 14:30:41;;;;;;;7.50;6.15;;;9.20;99.90;;;;;;4981971;28;20231;-69
2024/02/25 14:33:09;;;;;;;1.65;1.55;;;9.20;99.90;;;;;;4986370;28;20216;-68
2024/02/25 14:35:36;;;;;;;0.75;0.75;;;9.20;99.90;;;;;;4983417;28;20571;-72
2024/02/25 14:38:03;;;;;;;2.53;1.90;;;8.90;99.90;;;;;;4987547;28;20254;-68
2024/02/25 14:40:30;;;;;;;2.53;1.35;;;8.60;99.90;;;;;;4985175;28;20738;-67
2024/02/25 14:42:56;;;;;;;3.10;2.00;;;8.30;99.90;;;;;;4987515;28;20220;-68
2024/02/25 14:45:23;;;;;;;2.00;1.90;;;8.00;99.90;;;;;;4987884;28;20679;-67
2024/02/25 14:47:50;;;;;;;0.80;0.80;;;7.80;99.90;;;;;;4984344;28;20222;-69
2024/02/25 14:50:18;;;;;;;1.67;1.48;;;7.60;99.90;;;;;;4986107;28;20705;-67
2024/02/25 14:52:45;;;;;;;1.88;1.63;;;7.60;99.90;;;;;;4983885;28;20208;-68
2024/02/25 14:55:12;;;;;;;10.93;5.53;;;7.50;99.90;;;;;;4987354;28;20252;-69
2024/02/25 14:57:39;;;;;;;3.35;3.15;;;7.50;99.90;;;;;;4990667;28;20585;-67
2024/02/25 15:00:12;;;;;;;1.30;1.30;;;7.50;99.90;;;;;;4988114;28;20203;-70
2024/02/25 15:02:38;;;;;;;3.30;3.00;;;7.50;99.90;;;;;;4981994;28;20238;-69
2024/02/25 15:05:06;;;;;;;1.67;1.63;;;7.50;99.90;;;;;;4985053;28;20237;-67
2024/02/25 15:07:37;;;;;;;2.20;2.00;;;7.50;99.90;;;;;;4989278;28;20691;-67
2024/02/25 15:10:04;;;;;;;1.10;1.10;;;7.50;99.90;;;;;;4984537;28;20236;-69
2024/02/25 15:12:31;;;;;;;1.23;1.23;;;7.60;99.90;;;;;;4985787;28;20240;-67
2024/02/25 15:14:58;;;;;;;0.95;0.95;;;7.60;99.90;;;;;;4985235;28;20207;-69
2024/02/25 15:17:25;;;;;;;3.50;1.83;;;7.70;99.90;;;;;;4981411;28;20222;-68
2024/02/25 15:19:53;;;;;;;1.00;1.00;;;7.80;99.90;;;;;;4987148;28;20239;-70
2024/02/25 15:22:19;;;;;;;1.17;1.15;;;7.80;99.90;;;;;;4988525;28;20233;-68
2024/02/25 15:24:48;;;;;;;1.30;1.30;;;7.80;99.90;;;;;;4988662;28;20225;-70
2024/02/25 15:27:14;;;;;;;2.70;2.60;;;7.70;99.90;;;;;;4987185;28;20208;-68
2024/02/25 15:29:41;;;;;;;4.30;2.53;;;7.70;99.90;;;;;;4989584;28;20226;-66
2024/02/25 15:32:08;;;;;;;12.93;8.25;;;7.70;99.90;;;;;;4987875;28;20238;-67
2024/02/25 15:34:34;;;;;;;38.88;16.67;;;7.60;99.90;;;;;;4987976;28;20212;-68
2024/02/25 15:37:03;;;;;;;14.07;7.20;;;7.60;99.90;;;;;;4988626;28;20209;-68
2024/02/25 15:39:29;;;;;;;4.00;2.90;;;7.60;99.90;;;;;;4986060;28;20223;-68
2024/02/25 15:41:59;;;;;;;2.58;1.35;;;7.60;99.90;;;;;;4985179;28;20888;-68
2024/02/25 15:44:26;;;;;;;0.90;0.90;;;7.60;99.90;;;;;;4987140;28;20203;-68
2024/02/25 15:46:53;;;;;;;2.95;1.70;;;7.50;99.90;;;;;;4987534;28;20214;-69
2024/02/25 15:49:19;;;;;;;1.58;1.58;;;7.50;99.90;;;;;;4984044;28;20239;-67
2024/02/25 15:51:46;;;;;;;1.60;1.23;;;7.50;99.90;;;;;;4988328;28;20301;-68
2024/02/25 15:54:13;;;;;;;1.90;1.80;;;7.50;99.90;;;;;;4988686;28;20236;-69
2024/02/25 15:56:40;;;;;;;1.55;1.55;;;7.40;99.90;;;;;;4987887;28;20201;-68
2024/02/25 15:59:10;;;;;;;3.30;1.48;;;7.40;99.90;;;;;;4980359;28;20217;-69
2024/02/25 16:01:36;;;;;;;1.35;1.35;;;7.40;99.90;;;;;;4982897;28;20590;-68
2024/02/25 16:04:04;;;;;;;2.15;1.70;;;7.40;99.90;;;;;;4981782;28;20241;-69
2024/02/25 16:06:31;;;;;;;1.35;1.35;;;7.30;99.90;;;;;;4988110;28;20440;-68
2024/02/25 16:08:58;;;;;;;1.80;1.70;;;7.30;99.90;;;;;;4983391;28;20224;-69
2024/02/25 16:11:25;;;;;;;1.85;1.73;;;7.30;99.90;;;;;;4982584;28;20249;-70
2024/02/25 16:13:52;;;;;;;1.20;1.20;;;7.30;99.90;;;;;;4983763;28;20203;-68
2024/02/25 16:16:20;;;;;;;1.38;1.27;;;7.20;99.90;;;;;;4981109;28;20201;-67
2024/02/25 16:18:48;;;;;;;2.10;1.95;;;7.20;99.90;;;;;;4987175;28;20200;-67
2024/02/25 16:21:15;;;;;;;1.95;1.85;;;7.20;99.90;;;;;;4984155;28;20751;-68
2024/02/25 16:23:43;;;;;;;2.00;1.90;;;7.10;99.90;;;;;;4984444;28;20214;-68
2024/02/25 16:26:10;;;;;;;2.20;1.70;;;7.10;99.90;;;;;;4982466;28;20218;-68
2024/02/25 16:28:37;;;;;;;3.72;1.70;;;7.10;99.90;;;;;;4988579;28;20216;-68
2024/02/25 16:31:05;;;;;;;2.75;2.65;;;7.10;99.90;;;;;;4978166;28;20224;-68
2024/02/25 16:33:33;;;;;;;2.33;2.13;;;7.10;99.90;;;;;;4984521;28;20548;-68
2024/02/25 16:36:00;;;;;;;2.30;1.90;;;7.20;99.90;;;;;;4986662;28;20209;-69
2024/02/25 16:38:27;;;;;;;1.73;1.63;;;7.10;99.90;;;;;;4981312;28;20652;-67
2024/02/25 16:40:56;;;;;;;4.05;3.75;;;7.10;99.90;;;;;;4983678;28;20259;-68
2024/02/25 16:43:23;;;;;;;2.83;2.63;;;7.00;99.90;;;;;;4990531;28;20317;-68
2024/02/25 16:45:49;;;;;;;1.25;1.25;;;7.10;99.90;;;;;;4990899;28;20210;-67
2024/02/25 16:48:16;;;;;;;1.50;1.40;;;7.10;99.90;;;;;;4990476;28;20218;-68
2024/02/25 16:50:45;;;;;;;2.47;2.28;;;7.10;99.90;;;;;;4990763;28;20227;-68
2024/02/25 16:53:11;;;;;;;3.47;1.85;;;7.20;99.90;;;;;;4990547;28;20213;-68
2024/02/25 16:55:38;;;;;;;2.08;2.08;;;7.20;99.90;;;;;;4991421;28;20303;-68
2024/02/25 16:58:05;;;;;;;2.17;2.13;;;7.10;99.90;;;;;;4988835;28;20214;-68
2024/02/25 17:00:32;;;;;;;6.45;5.32;;;7.10;99.90;;;;;;4990780;28;20215;-67
2024/02/25 17:02:59;;;;;;;4.55;4.15;;;7.00;99.90;;;;;;4992108;28;20212;-68
2024/02/25 17:05:26;;;;;;;3.13;2.92;;;7.00;99.90;;;;;;4987641;28;20208;-69
2024/02/25 17:07:54;;;;;;;2.30;2.20;;;6.90;99.90;;;;;;4991909;28;20200;-72
2024/02/25 17:10:22;;;;;;;2.42;2.33;;;6.90;99.90;;;;;;4990480;28;20234;-68
2024/02/25 17:12:49;;;;;;;2.83;2.47;;;6.90;99.90;;;;;;4992965;28;20204;-68
2024/02/25 17:15:16;;;;;;;2.53;2.50;;;6.90;99.90;;;;;;4993077;28;20266;-68
2024/02/25 17:17:43;;;;;;;4.07;3.78;;;6.90;99.90;;;;;;4984366;28;20855;-68
2024/02/25 17:20:11;;;;;;;3.60;3.33;;;6.80;99.90;;;;;;4980527;28;20211;-67
2024/02/25 17:22:39;;;;;;;2.97;2.67;;;6.80;99.90;;;;;;4991675;28;20315;-68
2024/02/25 17:25:09;;;;;;;3.03;2.83;;;6.90;99.90;;;;;;4990874;28;20856;-68
2024/02/25 17:27:36;;;;;;;4.38;3.05;;;6.80;99.90;;;;;;4988758;28;20247;-69
2024/02/25 17:30:04;;;;;;;3.65;3.35;;;6.80;99.90;;;;;;4989584;28;20653;-69
2024/02/25 17:32:31;;;;;;;3.25;2.70;;;6.80;99.90;;;;;;4989725;28;20224;-68
2024/02/25 17:34:58;;;;;;;4.43;3.67;;;6.80;99.90;;;;;;4991400;28;20671;-67
2024/02/25 17:37:24;;;;;;;5.28;4.35;;;6.70;99.90;;;;;;4987647;28;20219;-68
2024/02/25 17:39:51;;;;;;;4.03;3.50;;;6.60;99.90;;;;;;4991031;28;20203;-68
2024/02/25 17:42:19;;;;;;;4.35;4.00;;;6.60;99.90;;;;;;4983995;28;20248;-69
2024/02/25 17:44:46;;;;;;;3.10;2.80;;;6.50;99.90;;;;;;4988245;28;20208;-68
2024/02/25 17:47:12;;;;;;;3.65;3.40;;;6.50;99.90;;;;;;4990877;28;20303;-68
2024/02/25 17:49:39;;;;;;;2.97;2.80;;;6.40;99.90;;;;;;4989978;28;20235;-68
2024/02/25 17:52:06;;;;;;;4.15;3.85;;;6.30;99.90;;;;;;4987059;28;20622;-68
2024/02/25 17:54:33;;;;;;;5.70;4.43;;;6.30;99.90;;;;;;4987384;28;20208;-68
2024/02/25 17:57:00;;;;;;;6.28;4.88;;;6.30;99.90;;;;;;4985230;28;20212;-68
2024/02/25 17:59:28;;;;;;;4.55;4.10;;;6.20;99.90;;;;;;4990486;28;20546;-68
2024/02/25 18:01:55;;;;;;;5.15;4.65;;;6.30;99.90;;;;;;4988958;28;20239;-67